createdAt,value
2017-11-19T00:01:27.842Z,4.30
2017-11-19T00:03:56.177Z,4.20
2017-11-19T00:06:23.743Z,4.20
2017-11-19T00:08:51.330Z,4.30
2017-11-19T00:11:20.152Z,4.30
2017-11-19T00:13:47.833Z,4.40
2017-11-19T00:16:15.520Z,4.30
2017-11-19T00:18:45.389Z,4.30
2017-11-19T00:21:13.028Z,4.30
2017-11-19T00:23:41.435Z,4.20
2017-11-19T00:26:09.986Z,4.30
2017-11-19T00:28:42.889Z,4.30
2017-11-19T00:31:22.463Z,4.20
2017-11-19T00:33:53.945Z,4.10
2017-11-19T00:36:23.341Z,4.20
2017-11-19T00:38:55.254Z,4.10
2017-11-19T00:41:23.705Z,4.10
2017-11-19T00:43:51.253Z,4.10
2017-11-19T00:46:19.662Z,4.20
2017-11-19T00:48:48.062Z,4.20
2017-11-19T00:51:15.652Z,4.10
2017-11-19T00:53:46.607Z,4.10
2017-11-19T00:56:21.534Z,4.10
2017-11-19T00:58:53.681Z,4.10
2017-11-19T01:01:21.742Z,4.10
2017-11-19T01:03:58.631Z,4.10
2017-11-19T01:06:27.517Z,4.10
2017-11-19T01:08:57.395Z,4.00
2017-11-19T01:11:27.243Z,4.00
2017-11-19T01:14:00.398Z,4.00
2017-11-19T01:16:35.093Z,4.00
2017-11-19T01:19:03.002Z,4.00
2017-11-19T01:21:36.144Z,3.90
2017-11-19T01:24:06.238Z,3.90
2017-11-19T01:26:36.001Z,4.00
2017-11-19T01:29:05.502Z,4.00
2017-11-19T01:31:38.532Z,4.00
2017-11-19T01:34:06.482Z,4.00
2017-11-19T01:36:36.523Z,4.00
2017-11-19T01:39:06.748Z,4.00
2017-11-19T01:41:44.181Z,3.90
2017-11-19T01:44:14.510Z,4.00
2017-11-19T01:46:42.220Z,3.90
2017-11-19T01:49:11.740Z,3.90
2017-11-19T01:51:41.167Z,3.90
2017-11-19T01:54:09.512Z,3.90
2017-11-19T01:56:39.885Z,3.90
2017-11-19T01:59:08.428Z,4.00
2017-11-19T02:01:53.776Z,4.00
2017-11-19T02:04:22.448Z,3.90
2017-11-19T02:06:53.374Z,4.00
2017-11-19T02:09:22.386Z,4.00
2017-11-19T02:11:51.014Z,3.90
2017-11-19T02:14:18.657Z,3.90
2017-11-19T02:16:51.579Z,3.90
2017-11-19T02:19:23.781Z,4.00
2017-11-19T02:21:54.446Z,3.90
2017-11-19T02:24:23.309Z,4.00
2017-11-19T02:27:00.167Z,4.00
2017-11-19T02:29:34.105Z,4.00
2017-11-19T02:32:02.861Z,3.90
2017-11-19T02:34:34.212Z,3.90
2017-11-19T02:37:01.818Z,4.00
2017-11-19T02:39:30.132Z,4.00
2017-11-19T02:41:59.281Z,4.00
2017-11-19T02:44:27.818Z,4.10
2017-11-19T02:46:57.593Z,4.10
2017-11-19T02:52:03.656Z,4.10
2017-11-19T02:54:33.487Z,4.10
2017-11-19T02:57:08.937Z,4.10
2017-11-19T02:59:42.111Z,4.20
2017-11-19T03:02:12.430Z,4.10
2017-11-19T03:04:40.254Z,4.10
2017-11-19T03:07:07.884Z,4.10
2017-11-19T03:09:35.820Z,4.10
2017-11-19T03:12:05.405Z,4.10
2017-11-19T03:14:34.372Z,4.10
2017-11-19T03:17:04.017Z,4.00
2017-11-19T03:19:33.858Z,4.10
2017-11-19T03:22:10.193Z,4.10
2017-11-19T03:24:39.667Z,4.10
2017-11-19T03:27:09.581Z,4.10
2017-11-19T03:29:38.101Z,4.10
2017-11-19T03:32:06.918Z,4.10
2017-11-19T03:34:35.933Z,4.00
2017-11-19T03:37:06.547Z,4.00
2017-11-19T03:39:41.217Z,4.10
2017-11-19T03:42:19.282Z,4.10
2017-11-19T03:47:30.478Z,4.10
2017-11-19T03:50:02.552Z,4.10
2017-11-19T03:52:34.786Z,4.20
2017-11-19T03:55:04.083Z,4.10
2017-11-19T03:57:32.811Z,4.10
2017-11-19T04:00:02.406Z,4.10
2017-11-19T04:02:29.997Z,4.10
2017-11-19T04:04:57.661Z,4.10
2017-11-19T04:07:26.216Z,4.20
2017-11-19T04:09:53.941Z,4.20
2017-11-19T04:12:21.621Z,4.10
2017-11-19T04:14:50.109Z,4.10
2017-11-19T04:17:17.749Z,4.10
2017-11-19T04:19:45.305Z,4.10
2017-11-19T04:22:12.921Z,4.20
2017-11-19T04:24:40.764Z,4.20
2017-11-19T04:27:08.597Z,4.10
2017-11-19T04:29:36.868Z,4.00
2017-11-19T04:32:04.487Z,4.00
2017-11-19T04:34:32.066Z,4.10
2017-11-19T04:37:01.009Z,4.10
2017-11-19T04:39:29.209Z,4.10
2017-11-19T04:41:56.838Z,4.10
2017-11-19T04:44:24.457Z,4.10
2017-11-19T04:46:52.035Z,4.10
2017-11-19T04:49:19.611Z,4.10
2017-11-19T04:51:47.375Z,4.10
2017-11-19T04:54:15.625Z,4.10
2017-11-19T04:56:44.741Z,4.10
2017-11-19T04:59:15.487Z,4.10
2017-11-19T05:01:44.376Z,4.10
2017-11-19T05:04:11.932Z,4.20
2017-11-19T05:06:40.342Z,4.20
2017-11-19T05:09:09.475Z,4.20
2017-11-19T05:11:37.951Z,4.20
2017-11-19T05:14:08.796Z,4.20
2017-11-19T05:16:37.297Z,4.20
2017-11-19T05:19:06.475Z,4.30
2017-11-19T05:21:35.911Z,4.30
2017-11-19T05:24:03.459Z,4.30
2017-11-19T05:26:31.117Z,4.20
2017-11-19T05:28:58.693Z,4.20
2017-11-19T05:31:26.287Z,4.20
2017-11-19T05:33:54.512Z,4.30
2017-11-19T05:36:22.135Z,4.30
2017-11-19T05:38:49.684Z,4.30
2017-11-19T05:41:17.343Z,4.30
2017-11-19T05:43:45.061Z,4.30
2017-11-19T05:46:13.781Z,4.30
2017-11-19T05:48:42.260Z,4.40
2017-11-19T05:51:10.457Z,4.40
2017-11-19T05:53:38.033Z,4.40
2017-11-19T05:56:05.715Z,4.50
2017-11-19T05:58:34.107Z,4.50
2017-11-19T06:01:01.717Z,4.50
2017-11-19T06:03:30.839Z,4.50
2017-11-19T06:05:59.460Z,4.60
2017-11-19T06:08:27.000Z,4.60
2017-11-19T06:10:55.638Z,4.60
2017-11-19T06:13:23.359Z,4.60
2017-11-19T06:15:51.013Z,4.60
2017-11-19T06:18:19.465Z,4.60
2017-11-19T06:20:47.196Z,4.60
2017-11-19T06:23:15.667Z,4.70
2017-11-19T06:25:44.066Z,4.70
2017-11-19T06:28:11.822Z,4.70
2017-11-19T06:30:39.642Z,4.60
2017-11-19T06:33:07.744Z,4.60
2017-11-19T06:35:35.484Z,4.60
2017-11-19T06:38:03.086Z,4.60
2017-11-19T06:40:30.672Z,4.60
2017-11-19T06:42:59.125Z,4.60
2017-11-19T06:45:27.660Z,4.60
2017-11-19T06:47:55.414Z,4.70
2017-11-19T06:50:23.065Z,4.70
2017-11-19T06:52:51.549Z,4.70
2017-11-19T06:55:19.230Z,4.70
2017-11-19T06:57:47.103Z,4.80
2017-11-19T07:00:15.364Z,4.90
2017-11-19T07:02:43.760Z,4.90
2017-11-19T07:05:11.374Z,4.80
2017-11-19T07:07:40.086Z,4.80
2017-11-19T07:10:08.490Z,4.90
2017-11-19T07:12:36.141Z,4.90
2017-11-19T07:15:05.593Z,4.90
2017-11-19T07:17:34.043Z,5.00
2017-11-19T07:20:01.597Z,4.90
2017-11-19T07:22:29.256Z,5.00
2017-11-19T07:24:56.925Z,5.00
2017-11-19T07:27:24.880Z,5.00
2017-11-19T07:29:52.555Z,5.00
2017-11-19T07:32:20.977Z,5.00
2017-11-19T07:34:49.686Z,5.10
2017-11-19T07:37:17.289Z,5.00
2017-11-19T07:39:44.989Z,5.10
2017-11-19T07:42:12.667Z,5.10
2017-11-19T07:44:40.260Z,5.20
2017-11-19T07:47:08.669Z,5.20
2017-11-19T07:49:36.284Z,5.20
2017-11-19T07:52:03.947Z,5.20
2017-11-19T07:54:35.039Z,5.20
2017-11-19T07:57:03.555Z,5.20
2017-11-19T07:59:32.941Z,5.20
2017-11-19T08:02:03.245Z,5.20
2017-11-19T08:04:31.709Z,5.30
2017-11-19T08:06:59.369Z,5.20
2017-11-19T08:09:27.801Z,5.20
2017-11-19T08:11:56.153Z,5.10
2017-11-19T08:14:24.562Z,5.10
2017-11-19T08:16:54.688Z,5.20
2017-11-19T08:19:23.113Z,5.20
2017-11-19T08:21:50.837Z,5.20
2017-11-19T08:24:19.813Z,5.20
2017-11-19T08:26:49.517Z,5.30
2017-11-19T08:29:17.901Z,5.30
2017-11-19T08:31:45.707Z,5.30
2017-11-19T08:34:14.611Z,5.30
2017-11-19T08:36:42.269Z,5.30
2017-11-19T08:39:10.435Z,5.30
2017-11-19T08:41:38.960Z,5.20
2017-11-19T08:44:07.371Z,5.30
2017-11-19T08:46:35.880Z,5.20
2017-11-19T08:49:03.445Z,5.30
2017-11-19T08:51:31.994Z,5.50
2017-11-19T08:53:59.592Z,5.50
2017-11-19T08:56:28.116Z,5.50
2017-11-19T08:58:55.721Z,5.60
2017-11-19T09:01:23.293Z,5.50
2017-11-19T09:03:50.936Z,5.70
2017-11-19T09:06:18.604Z,5.70
2017-11-19T09:08:47.253Z,5.80
2017-11-19T09:11:15.012Z,5.80
2017-11-19T09:13:42.680Z,5.80
2017-11-19T09:16:10.335Z,5.80
2017-11-19T09:18:37.861Z,5.70
2017-11-19T09:21:05.456Z,5.80
2017-11-19T09:23:58.089Z,5.90
2017-11-19T09:26:27.869Z,5.90
2017-11-19T09:28:56.312Z,5.90
2017-11-19T09:31:26.729Z,6.10
2017-11-19T09:33:58.617Z,6.10
2017-11-19T09:36:27.172Z,6.20
2017-11-19T09:38:55.250Z,6.20
2017-11-19T09:41:22.833Z,6.10
2017-11-19T09:43:50.426Z,6.10
2017-11-19T09:46:18.024Z,6.10
2017-11-19T09:48:46.417Z,6.10
2017-11-19T09:51:13.997Z,6.00
2017-11-19T09:53:41.553Z,6.10
2017-11-19T09:56:10.055Z,6.30
2017-11-19T09:58:37.633Z,6.20
2017-11-19T10:01:05.839Z,6.30
2017-11-19T10:03:34.567Z,6.40
2017-11-19T10:06:02.256Z,6.60
2017-11-19T10:08:30.814Z,6.70
2017-11-19T10:10:59.292Z,6.80
2017-11-19T10:13:27.018Z,6.80
2017-11-19T10:15:56.312Z,6.80
2017-11-19T10:18:24.497Z,6.90
2017-11-19T10:20:53.825Z,6.80
2017-11-19T10:23:24.358Z,6.80
2017-11-19T10:25:53.201Z,6.80
2017-11-19T10:28:21.772Z,6.80
2017-11-19T10:30:50.341Z,6.80
2017-11-19T10:33:24.610Z,6.80
2017-11-19T10:35:56.367Z,6.80
2017-11-19T10:38:25.005Z,7.00
2017-11-19T10:40:56.169Z,6.90
2017-11-19T10:43:25.085Z,6.90
2017-11-19T10:45:54.243Z,6.80
2017-11-19T10:48:23.639Z,6.90
2017-11-19T10:50:54.009Z,6.90
2017-11-19T10:53:27.326Z,6.90
2017-11-19T10:55:58.470Z,6.70
2017-11-19T10:58:29.051Z,6.70
2017-11-19T11:00:57.662Z,6.70
2017-11-19T11:03:30.097Z,6.50
2017-11-19T11:05:59.509Z,6.50
2017-11-19T11:08:28.410Z,6.40
2017-11-19T11:10:57.139Z,6.40
2017-11-19T11:13:25.581Z,6.60
2017-11-19T11:15:54.068Z,6.40
2017-11-19T11:18:22.512Z,6.50
2017-11-19T11:20:50.266Z,6.50
2017-11-19T11:23:18.207Z,6.50
2017-11-19T11:25:45.921Z,6.40
2017-11-19T11:28:15.913Z,6.50
2017-11-19T11:30:43.992Z,6.30
2017-11-19T11:33:11.717Z,6.30
2017-11-19T11:35:40.465Z,6.30
2017-11-19T11:38:08.196Z,6.30
2017-11-19T11:40:36.346Z,6.40
2017-11-19T11:43:03.958Z,6.30
2017-11-19T11:45:31.718Z,6.40
2017-11-19T11:47:59.417Z,6.60
2017-11-19T11:50:28.416Z,6.60
2017-11-19T11:52:56.112Z,6.70
2017-11-19T11:55:24.698Z,6.60
2017-11-19T11:57:52.437Z,6.70
2017-11-19T12:00:20.127Z,6.80
2017-11-19T12:02:47.754Z,6.80
2017-11-19T12:05:15.480Z,6.60
2017-11-19T12:07:43.276Z,6.50
2017-11-19T12:10:11.736Z,6.50
2017-11-19T12:12:40.135Z,6.50
2017-11-19T12:15:08.516Z,6.60
2017-11-19T12:17:36.960Z,6.60
2017-11-19T12:20:06.332Z,6.70
2017-11-19T12:22:35.561Z,7.00
2017-11-19T12:25:06.267Z,7.20
2017-11-19T12:27:33.888Z,7.20
2017-11-19T12:30:02.317Z,7.30
2017-11-19T12:32:29.925Z,7.50
2017-11-19T12:34:58.287Z,7.60
2017-11-19T12:37:25.930Z,7.70
2017-11-19T12:39:54.495Z,7.80
2017-11-19T12:42:23.206Z,7.90
2017-11-19T12:44:51.115Z,7.90
2017-11-19T12:47:19.673Z,8.00
2017-11-19T12:49:48.908Z,8.10
2017-11-19T12:52:17.684Z,8.10
2017-11-19T12:54:46.266Z,8.20
2017-11-19T12:57:16.751Z,8.30
2017-11-19T12:59:44.654Z,8.30
2017-11-19T13:02:14.301Z,8.30
2017-11-19T13:04:41.972Z,8.30
2017-11-19T13:07:09.541Z,8.30
2017-11-19T13:09:37.931Z,8.40
2017-11-19T13:12:06.498Z,8.40
2017-11-19T13:14:34.177Z,8.40
2017-11-19T13:17:01.710Z,8.30
2017-11-19T13:19:30.084Z,8.30
2017-11-19T13:21:59.290Z,8.30
2017-11-19T13:24:28.087Z,8.40
2017-11-19T13:26:58.799Z,8.50
2017-11-19T13:29:27.697Z,8.50
2017-11-19T13:31:56.277Z,8.50
2017-11-19T13:34:24.842Z,8.50
2017-11-19T13:36:52.539Z,8.50
2017-11-19T13:39:21.722Z,8.30
2017-11-19T13:41:50.756Z,8.20
2017-11-19T13:44:20.839Z,7.70
2017-11-19T13:46:48.432Z,7.70
2017-11-19T13:49:16.438Z,7.60
2017-11-19T13:51:44.848Z,7.50
2017-11-19T13:54:13.250Z,7.40
2017-11-19T13:56:41.329Z,7.40
2017-11-19T13:59:09.706Z,7.30
2017-11-19T14:01:37.299Z,7.30
2017-11-19T14:04:06.412Z,7.10
2017-11-19T14:06:34.876Z,7.10
2017-11-19T14:09:02.489Z,6.90
2017-11-19T14:11:30.025Z,6.80
2017-11-19T14:13:57.624Z,6.70
2017-11-19T14:16:25.951Z,6.40
2017-11-19T14:18:53.543Z,6.40
2017-11-19T14:21:22.341Z,6.30
2017-11-19T14:23:51.732Z,6.20
2017-11-19T14:26:19.382Z,6.20
2017-11-19T14:28:47.057Z,6.10
2017-11-19T14:31:14.676Z,6.00
2017-11-19T14:33:43.178Z,5.80
2017-11-19T14:36:10.916Z,5.70
2017-11-19T14:38:39.437Z,5.70
2017-11-19T14:41:07.100Z,5.50
2017-11-19T14:43:35.490Z,5.50
2017-11-19T14:46:03.028Z,5.40
2017-11-19T14:48:31.416Z,5.30
2017-11-19T14:50:59.888Z,5.30
2017-11-19T14:53:27.531Z,5.20
2017-11-19T14:55:55.139Z,5.10
2017-11-19T14:58:22.794Z,5.00
2017-11-19T15:00:50.466Z,4.90
2017-11-19T15:03:18.074Z,4.80
2017-11-19T15:05:45.801Z,4.80
2017-11-19T15:08:15.365Z,4.80
2017-11-19T15:10:44.217Z,4.80
2017-11-19T15:13:13.696Z,4.70
2017-11-19T15:15:42.313Z,4.60
2017-11-19T15:18:10.708Z,4.50
2017-11-19T15:20:38.408Z,4.40
2017-11-19T15:23:06.031Z,4.30
2017-11-19T15:25:33.718Z,4.50
2017-11-19T15:28:02.185Z,4.50
2017-11-19T15:30:29.853Z,4.50
2017-11-19T15:32:57.449Z,4.60
2017-11-19T15:35:25.961Z,4.60
2017-11-19T15:37:54.353Z,4.70
2017-11-19T15:40:23.603Z,4.60
2017-11-19T15:42:51.315Z,4.60
2017-11-19T15:45:20.594Z,4.60
2017-11-19T15:47:50.023Z,4.50
2017-11-19T15:50:18.618Z,4.30
2017-11-19T15:52:46.394Z,4.40
2017-11-19T15:55:14.016Z,4.30
2017-11-19T15:57:42.418Z,4.20
2017-11-19T16:00:10.178Z,4.20
2017-11-19T16:02:38.853Z,4.10
2017-11-19T16:05:06.505Z,4.00
2017-11-19T16:07:34.128Z,4.10
2017-11-19T16:10:01.780Z,4.10
2017-11-19T16:12:30.128Z,4.00
2017-11-19T16:14:58.489Z,4.10
2017-11-19T16:17:26.188Z,4.10
2017-11-19T16:19:56.609Z,4.00
2017-11-19T16:22:24.197Z,4.00
2017-11-19T16:24:51.947Z,4.00
2017-11-19T16:27:21.175Z,4.10
2017-11-19T16:29:48.796Z,4.10
2017-11-19T16:32:16.428Z,4.10
2017-11-19T16:34:45.520Z,4.20
2017-11-19T16:37:13.308Z,4.20
2017-11-19T16:39:48.299Z,4.30
2017-11-19T16:42:19.441Z,4.20
2017-11-19T16:44:53.489Z,4.10
2017-11-19T16:47:21.780Z,4.10
2017-11-19T16:49:49.448Z,4.00
2017-11-19T16:52:20.174Z,4.00
2017-11-19T16:54:49.066Z,4.00
2017-11-19T16:57:18.477Z,3.90
2017-11-19T16:59:47.498Z,3.80
2017-11-19T17:02:15.342Z,3.80
2017-11-19T17:04:44.580Z,3.70
2017-11-19T17:07:13.630Z,3.80
2017-11-19T17:09:41.313Z,3.80
2017-11-19T17:12:08.856Z,3.60
2017-11-19T17:14:36.594Z,3.60
2017-11-19T17:17:04.993Z,3.50
2017-11-19T17:19:32.574Z,3.50
2017-11-19T17:22:00.121Z,3.50
2017-11-19T17:24:28.250Z,3.40
2017-11-19T17:26:57.157Z,3.20
2017-11-19T17:29:25.508Z,3.20
2017-11-19T17:31:53.064Z,3.20
2017-11-19T17:34:20.661Z,3.20
2017-11-19T17:36:51.054Z,3.00
2017-11-19T17:39:19.580Z,3.00
2017-11-19T17:41:47.147Z,3.10
2017-11-19T17:44:14.720Z,3.10
2017-11-19T17:46:42.299Z,3.00
2017-11-19T17:49:10.673Z,3.00
2017-11-19T17:51:38.919Z,3.00
2017-11-19T17:54:07.260Z,3.00
2017-11-19T17:56:35.430Z,2.90
2017-11-19T17:59:03.886Z,2.90
2017-11-19T18:01:31.748Z,2.80
2017-11-19T18:04:00.248Z,2.80
2017-11-19T18:06:27.870Z,2.80
2017-11-19T18:08:56.696Z,2.80
2017-11-19T18:11:25.279Z,2.70
2017-11-19T18:13:52.884Z,2.60
2017-11-19T18:16:21.053Z,2.70
2017-11-19T18:18:49.975Z,2.60
2017-11-19T18:21:19.730Z,2.60
2017-11-19T18:23:47.661Z,2.50
2017-11-19T18:26:16.390Z,2.50
2017-11-19T18:28:44.025Z,2.40
2017-11-19T18:31:12.662Z,2.40
2017-11-19T18:33:41.032Z,2.40
2017-11-19T18:36:09.263Z,2.40
2017-11-19T18:38:37.009Z,2.40
2017-11-19T18:41:04.860Z,2.30
2017-11-19T18:43:34.446Z,2.30
2017-11-19T18:46:02.769Z,2.30
2017-11-19T18:48:30.355Z,2.30
2017-11-19T18:50:58.942Z,2.20
2017-11-19T18:53:26.542Z,2.10
2017-11-19T18:55:54.165Z,2.20
2017-11-19T18:58:22.515Z,2.20
2017-11-19T19:00:50.116Z,2.20
2017-11-19T19:03:17.837Z,2.30
2017-11-19T19:05:46.143Z,2.30
2017-11-19T19:08:14.536Z,2.50
2017-11-19T19:10:42.701Z,2.40
2017-11-19T19:13:10.272Z,2.50
2017-11-19T19:15:39.014Z,2.50
2017-11-19T19:18:08.935Z,2.50
2017-11-19T19:20:37.349Z,2.50
2017-11-19T19:23:04.966Z,2.40
2017-11-19T19:25:32.495Z,2.50
2017-11-19T19:28:00.081Z,2.60
2017-11-19T19:30:28.392Z,2.70
2017-11-19T19:32:56.776Z,2.70
2017-11-19T19:35:24.317Z,2.70
2017-11-19T19:37:51.864Z,2.70
2017-11-19T19:40:19.450Z,2.80
2017-11-19T19:42:47.005Z,2.70
2017-11-19T19:45:15.769Z,2.80
2017-11-19T19:47:44.119Z,2.80
2017-11-19T19:50:11.662Z,2.80
2017-11-19T19:52:41.105Z,2.70
2017-11-19T19:55:08.645Z,2.80
2017-11-19T19:57:36.756Z,2.80
2017-11-19T20:00:05.757Z,2.70
2017-11-19T20:02:33.893Z,2.70
2017-11-19T20:05:01.471Z,2.70
2017-11-19T20:07:29.849Z,2.50
2017-11-19T20:09:59.115Z,2.50
2017-11-19T20:12:26.643Z,2.50
2017-11-19T20:14:55.003Z,2.50
2017-11-19T20:17:22.536Z,2.30
2017-11-19T20:19:51.841Z,2.50
2017-11-19T20:22:19.392Z,2.50
2017-11-19T20:24:47.771Z,2.50
2017-11-19T20:27:16.264Z,2.50
2017-11-19T20:29:44.611Z,2.40
2017-11-19T20:32:12.148Z,2.40
2017-11-19T20:34:40.519Z,2.50
2017-11-19T20:37:08.065Z,2.40
2017-11-19T20:39:35.635Z,2.40
2017-11-19T20:42:03.203Z,2.30
2017-11-19T20:44:30.770Z,2.30
2017-11-19T20:47:00.123Z,2.30
2017-11-19T20:49:27.723Z,2.30
2017-11-19T20:51:56.675Z,2.30
2017-11-19T20:54:26.257Z,2.20
2017-11-19T20:56:53.850Z,2.30
2017-11-19T20:59:21.422Z,2.30
2017-11-19T21:01:49.080Z,2.10
2017-11-19T21:04:16.785Z,2.20
2017-11-19T21:06:44.324Z,2.10
2017-11-19T21:09:12.735Z,2.00
2017-11-19T21:11:40.272Z,2.00
2017-11-19T21:14:07.849Z,2.10
2017-11-19T21:16:36.275Z,2.00
2017-11-19T21:19:03.857Z,2.00
2017-11-19T21:21:31.388Z,2.00
2017-11-19T21:23:59.727Z,1.80
2017-11-19T21:26:27.284Z,1.80
2017-11-19T21:28:54.858Z,1.80
2017-11-19T21:31:23.342Z,1.70
2017-11-19T21:33:50.929Z,1.70
2017-11-19T21:36:20.350Z,1.70
2017-11-19T21:38:47.979Z,1.80
2017-11-19T21:41:17.481Z,1.70
2017-11-19T21:43:45.149Z,1.60
2017-11-19T21:46:12.688Z,1.70
2017-11-19T21:48:41.235Z,1.70
2017-11-19T21:51:09.963Z,1.70
2017-11-19T21:53:37.532Z,1.60
2017-11-19T21:56:05.857Z,1.70
2017-11-19T21:58:34.572Z,1.70
2017-11-19T22:01:02.799Z,1.60
2017-11-19T22:03:31.136Z,1.60
2017-11-19T22:05:59.225Z,1.60
2017-11-19T22:08:26.958Z,1.50
2017-11-19T22:10:55.266Z,1.40
2017-11-19T22:13:23.671Z,1.40
2017-11-19T22:15:51.219Z,1.40
2017-11-19T22:18:19.681Z,1.30
2017-11-19T22:20:47.383Z,1.30
2017-11-19T22:23:15.716Z,1.30
2017-11-19T22:25:43.237Z,1.30
2017-11-19T22:28:11.574Z,1.20
2017-11-19T22:30:39.133Z,1.20
2017-11-19T22:33:06.710Z,1.30
2017-11-19T22:35:35.230Z,1.30
2017-11-19T22:38:02.810Z,1.30
2017-11-19T22:40:32.116Z,1.20
2017-11-19T22:42:59.935Z,1.20
2017-11-19T22:45:27.585Z,1.20
2017-11-19T22:47:55.226Z,1.20
2017-11-19T22:50:22.780Z,1.10
2017-11-19T22:52:51.165Z,1.20
2017-11-19T22:55:20.921Z,1.10
2017-11-19T22:57:49.461Z,1.10
2017-11-19T23:00:17.002Z,1.10
2017-11-19T23:02:44.570Z,1.10
2017-11-19T23:05:12.117Z,1.10
2017-11-19T23:07:39.688Z,1.10
2017-11-19T23:10:09.179Z,1.20
2017-11-19T23:12:36.795Z,1.20
2017-11-19T23:15:05.241Z,1.10
2017-11-19T23:17:32.819Z,1.00
2017-11-19T23:20:00.436Z,1.00
2017-11-19T23:22:27.995Z,1.00
2017-11-19T23:24:56.306Z,1.00
2017-11-19T23:27:23.896Z,1.00
2017-11-19T23:29:51.441Z,1.10
2017-11-19T23:32:19.041Z,1.10
2017-11-19T23:34:46.597Z,1.10
2017-11-19T23:37:15.134Z,1.10
2017-11-19T23:39:43.108Z,1.10
2017-11-19T23:42:13.466Z,1.10
2017-11-19T23:44:40.990Z,1.10
2017-11-19T23:47:08.568Z,1.00
2017-11-19T23:49:36.091Z,1.00
2017-11-19T23:52:03.652Z,0.90
2017-11-19T23:54:31.187Z,1.00
2017-11-19T23:56:59.659Z,0.90
2017-11-19T23:59:27.188Z,0.90
